Terminal Aerodrome Forecast
Issued by NWS Sioux Falls, SD

Home | Current Version | Previous Version | Graphics & Text | Print | Product List | Glossary Off
Versions: 1 2 3 4 5 6 7 8 9 10 11 12 13 14 15 16 17 18 19 20 21 22 23 24 25 26 27 28 29 30 31 32

000
FTUS43 KFSD 022327
TAFSUX
TAF
KSUX 022327Z 0300/0324 03022G33KT 3/4SM -SN BLSN OVC015
     FM030200 01024G33KT 1/2SM -SN BLSN OVC008
     FM030500 35021G29KT 1/2SM BLSN OVC008
     FM031100 33019G26KT 1/2SM BLSN OVC015
     FM031400 32018G25KT P6SM BKN015
     FM031600 32016G23KT P6SM BKN030
     FM031700 32015G23KT P6SM BKN050=

USA.gov is the U.S. government's official web portal to all federal, state and local government web resources and services.